Time;durP1;ratioP1;P1;durP2;ratioP2;P2;SDS_P1;SDS_P2;PMS_P1;PMS_P2;Temp;Humidity;BMP_temperature;BMP_pressure;BME280_temperature;BME280_humidity;BME280_pressure;Samples;Min_cycle;Max_cycle;Signal;HPM_P1;HPM_P2
2024/01/23 00:02:17;;;;;;;2.23;0.80;;;;;;;;;;5047591;28;20210;-31
2024/01/23 00:04:50;;;;;;;1.57;0.60;;;;;;;;;;5051855;28;20209;-33
2024/01/23 00:07:20;;;;;;;0.70;0.63;;;;;;;;;;5050923;28;20238;-33
2024/01/23 00:09:51;;;;;;;1.90;0.70;;;;;;;;;;5041785;28;20226;-34
2024/01/23 00:12:18;;;;;;;1.57;0.90;;;;;;;;;;5045839;28;20268;-38
2024/01/23 00:14:50;;;;;;;2.27;0.87;;;;;;;;;;5051625;28;20198;-38
2024/01/23 00:17:18;;;;;;;1.00;0.70;;;;;;;;;;5046552;28;20331;-37
2024/01/23 00:19:47;;;;;;;3.13;0.70;;;;;;;;;;5050800;28;20222;-34
2024/01/23 00:22:14;;;;;;;1.13;0.80;;;;;;;;;;5051681;28;20244;-33
2024/01/23 00:24:45;;;;;;;0.80;0.80;;;;;;;;;;5047947;28;20198;-34
2024/01/23 00:27:13;;;;;;;1.03;0.60;;;;;;;;;;5051498;28;20305;-37
2024/01/23 00:29:41;;;;;;;1.30;0.90;;;;;;;;;;5051966;28;20217;-37
2024/01/23 00:32:13;;;;;;;2.53;0.80;;;;;;;;;;5050794;28;20208;-31
2024/01/23 00:34:40;;;;;;;1.43;0.80;;;;;;;;;;5051709;28;20202;-33
2024/01/23 00:37:09;;;;;;;1.23;0.80;;;;;;;;;;5055644;28;20216;-34
2024/01/23 00:39:38;;;;;;;2.97;0.80;;;;;;;;;;5048535;28;20260;-36
2024/01/23 00:42:10;;;;;;;2.20;1.00;;;;;;;;;;5055530;28;20213;-34
2024/01/23 00:44:39;;;;;;;2.07;0.50;;;;;;;;;;5055159;28;20613;-33
2024/01/23 00:47:08;;;;;;;3.53;1.00;;;;;;;;;;5054705;28;20232;-33
2024/01/23 00:49:46;;;;;;;2.00;0.63;;;;;;;;;;5049751;28;20590;-33
2024/01/23 00:52:16;;;;;;;3.80;0.70;;;;;;;;;;5055820;28;20259;-35
2024/01/23 00:54:46;;;;;;;1.23;1.10;;;;;;;;;;5048955;28;20213;-33
2024/01/23 00:57:18;;;;;;;4.67;0.80;;;;;;;;;;5049031;28;20217;-36
2024/01/23 00:59:45;;;;;;;2.10;0.93;;;;;;;;;;5054917;28;20250;-31
2024/01/23 01:02:21;;;;;;;2.93;0.63;;;;;;;;;;5047716;28;20348;-33
2024/01/23 01:04:50;;;;;;;2.40;0.80;;;;;;;;;;5043453;28;20205;-32
2024/01/23 01:07:21;;;;;;;1.53;0.93;;;;;;;;;;5055137;28;20213;-36
2024/01/23 01:09:50;;;;;;;3.47;1.00;;;;;;;;;;5046905;28;20226;-36
2024/01/23 01:12:21;;;;;;;2.83;1.00;;;;;;;;;;5054932;28;20206;-36
2024/01/23 01:14:50;;;;;;;3.13;0.93;;;;;;;;;;5054968;28;20205;-32
2024/01/23 01:17:17;;;;;;;1.90;0.90;;;;;;;;;;5052574;28;20225;-38
2024/01/23 01:19:45;;;;;;;2.50;0.80;;;;;;;;;;5050765;28;20232;-32
2024/01/23 01:22:14;;;;;;;3.00;1.00;;;;;;;;;;5053262;28;20281;-33
2024/01/23 01:24:41;;;;;;;1.43;0.70;;;;;;;;;;5050125;28;20210;-34
2024/01/23 01:27:14;;;;;;;3.47;1.17;;;;;;;;;;5048536;28;20259;-36
2024/01/23 01:29:42;;;;;;;2.73;0.60;;;;;;;;;;5054690;28;20222;-35
2024/01/23 01:32:09;;;;;;;0.13;0.13;;;;;;;;;;5046966;28;20289;-35
2024/01/23 01:34:38;;;;;;;1.50;0.83;;;;;;;;;;5046950;28;20205;-37
2024/01/23 01:37:07;;;;;;;4.27;1.00;;;;;;;;;;5053131;28;20868;-32
2024/01/23 01:39:37;;;;;;;1.20;0.60;;;;;;;;;;5040130;28;20257;-33
2024/01/23 01:42:12;;;;;;;2.33;1.03;;;;;;;;;;5044905;28;20213;-37
2024/01/23 01:44:42;;;;;;;2.70;0.93;;;;;;;;;;5047383;28;20205;-39
2024/01/23 01:47:20;;;;;;;4.00;0.90;;;;;;;;;;5053666;28;20202;-29
2024/01/23 01:49:56;;;;;;;1.90;0.70;;;;;;;;;;5029796;28;20254;-36
2024/01/23 01:52:31;;;;;;;5.90;1.40;;;;;;;;;;5054979;28;20194;-31
2024/01/23 01:55:15;;;;;;;1.73;1.10;;;;;;;;;;5048090;28;20206;-36
2024/01/23 02:08:43;;;;;;;2.83;0.70;;;;;;;;;;5052620;28;20301;-25
2024/01/23 02:11:17;;;;;;;3.33;1.13;;;;;;;;;;5045805;28;20283;-27
2024/01/23 02:13:57;;;;;;;2.87;0.77;;;;;;;;;;5055007;28;20206;-27
2024/01/23 02:16:27;;;;;;;5.97;0.80;;;;;;;;;;5042564;28;20272;-24
2024/01/23 02:19:00;;;;;;;0.57;0.57;;;;;;;;;;5043039;28;20207;-26
2024/01/23 02:21:33;;;;;;;1.87;0.77;;;;;;;;;;5053283;28;20213;-26
2024/01/23 02:24:06;;;;;;;2.67;0.83;;;;;;;;;;5048283;28;20206;-33
2024/01/23 02:26:47;;;;;;;6.57;1.10;;;;;;;;;;5046197;28;20206;-23
2024/01/23 02:29:26;;;;;;;1.47;0.90;;;;;;;;;;5053626;28;20213;-25
2024/01/23 02:31:55;;;;;;;8.43;1.10;;;;;;;;;;5054679;28;20213;-27
2024/01/23 02:34:27;;;;;;;2.50;1.00;;;;;;;;;;5045670;28;20206;-26
2024/01/23 02:37:03;;;;;;;2.63;0.80;;;;;;;;;;5053648;28;20225;-26
2024/01/23 02:39:32;;;;;;;0.70;0.50;;;;;;;;;;5051360;28;20544;-27
2024/01/23 02:42:03;;;;;;;0.87;0.43;;;;;;;;;;5048252;28;20210;-29
2024/01/23 02:44:31;;;;;;;1.53;0.70;;;;;;;;;;5054114;28;20211;-31
2024/01/23 02:47:20;;;;;;;1.80;0.83;;;;;;;;;;5053979;28;20202;-27
2024/01/23 02:49:54;;;;;;;4.30;0.73;;;;;;;;;;5042621;28;20233;-29
2024/01/23 02:52:27;;;;;;;2.17;0.77;;;;;;;;;;5053636;28;20210;-27
2024/01/23 02:54:56;;;;;;;4.10;0.80;;;;;;;;;;5048654;28;20206;-27
2024/01/23 02:57:26;;;;;;;1.27;0.93;;;;;;;;;;5053500;28;20241;-29
2024/01/23 02:59:58;;;;;;;2.97;1.00;;;;;;;;;;5053075;28;20226;-29
2024/01/23 03:02:27;;;;;;;2.17;0.90;;;;;;;;;;5044527;28;20205;-26
2024/01/23 03:05:14;;;;;;;2.43;1.00;;;;;;;;;;5040338;28;20206;-30
2024/01/23 03:07:44;;;;;;;4.20;1.30;;;;;;;;;;5060710;28;20209;-28
2024/01/23 03:10:19;;;;;;;1.53;0.80;;;;;;;;;;5066626;28;20217;-30
2024/01/23 03:12:57;;;;;;;3.40;0.80;;;;;;;;;;5066927;28;20224;-29
2024/01/23 03:15:27;;;;;;;3.03;0.83;;;;;;;;;;5072249;28;20245;-27
2024/01/23 03:17:58;;;;;;;7.33;1.10;;;;;;;;;;5069579;28;20221;-27
2024/01/23 03:20:29;;;;;;;6.43;1.20;;;;;;;;;;5072509;28;20255;-29
2024/01/23 03:23:00;;;;;;;2.90;0.77;;;;;;;;;;5072863;28;20212;-28
2024/01/23 03:25:32;;;;;;;2.47;0.50;;;;;;;;;;5065447;28;20205;-30
2024/01/23 03:28:03;;;;;;;2.93;0.80;;;;;;;;;;5071970;28;20193;-27
2024/01/23 03:30:31;;;;;;;4.93;1.00;;;;;;;;;;5071547;28;20241;-28
2024/01/23 03:32:59;;;;;;;2.40;0.77;;;;;;;;;;5064789;28;20205;-29
2024/01/23 03:35:34;;;;;;;2.40;0.90;;;;;;;;;;5072797;28;20213;-29
2024/01/23 03:38:02;;;;;;;1.60;0.83;;;;;;;;;;5072320;28;20224;-27
2024/01/23 03:43:01;;;;;;;5.13;1.20;;;;;;;;;;5025784;28;20220;-34
2024/01/23 03:45:33;;;;;;;5.90;1.30;;;;;;;;;;5029563;28;20202;-35
2024/01/23 03:48:03;;;;;;;6.47;1.60;;;;;;;;;;5018888;28;20300;-35
2024/01/23 03:50:31;;;;;;;4.73;0.93;;;;;;;;;;5029416;28;20253;-38
2024/01/23 03:52:59;;;;;;;4.73;0.80;;;;;;;;;;5051665;28;20220;-34
2024/01/23 03:55:30;;;;;;;3.57;1.30;;;;;;;;;;5039068;28;20641;-36
2024/01/23 03:57:58;;;;;;;2.97;1.17;;;;;;;;;;5046423;28;20226;-35
2024/01/23 04:00:29;;;;;;;6.03;1.43;;;;;;;;;;5051519;28;20232;-34
2024/01/23 04:03:07;;;;;;;3.70;0.90;;;;;;;;;;5049387;28;20210;-33
2024/01/23 04:05:35;;;;;;;10.10;1.57;;;;;;;;;;5043954;28;20214;-32
2024/01/23 04:10:40;;;;;;;3.73;1.53;;;;;;;;;;5035036;28;20717;-37
2024/01/23 04:13:09;;;;;;;5.90;1.00;;;;;;;;;;5052250;28;20251;-35
2024/01/23 04:15:39;;;;;;;6.10;1.17;;;;;;;;;;5050917;28;20206;-33
2024/01/23 04:18:07;;;;;;;6.70;1.23;;;;;;;;;;5049019;28;20261;-32
2024/01/23 04:20:37;;;;;;;2.43;1.10;;;;;;;;;;5047194;28;20226;-36
2024/01/23 04:25:40;;;;;;;4.23;1.10;;;;;;;;;;5061571;28;20220;-28
2024/01/23 04:28:08;;;;;;;4.90;1.07;;;;;;;;;;5071714;28;20198;-29
2024/01/23 04:30:35;;;;;;;8.67;1.70;;;;;;;;;;5071097;28;20229;-27
2024/01/23 04:33:05;;;;;;;9.63;1.83;;;;;;;;;;5070878;28;20201;-28
2024/01/23 04:35:38;;;;;;;6.90;1.50;;;;;;;;;;5062877;28;20205;-27
2024/01/23 04:38:08;;;;;;;10.67;1.83;;;;;;;;;;5071022;28;20221;-28
2024/01/23 04:40:44;;;;;;;9.80;1.60;;;;;;;;;;5063223;28;20232;-28
2024/01/23 04:43:12;;;;;;;6.93;1.33;;;;;;;;;;5067028;28;20205;-29
2024/01/23 04:50:55;;;;;;;8.70;1.57;;;;;;;;;;5048942;28;20301;-29
2024/01/23 04:53:27;;;;;;;3.90;1.03;;;;;;;;;;5054482;28;20208;-29
2024/01/23 04:55:54;;;;;;;4.67;1.33;;;;;;;;;;5063422;28;20303;-28
2024/01/23 04:58:34;;;;;;;9.10;1.20;;;;;;;;;;5066627;28;20229;-28
2024/01/23 05:01:03;;;;;;;3.43;1.30;;;;;;;;;;5071232;28;20296;-27
2024/01/23 05:03:31;;;;;;;7.67;1.50;;;;;;;;;;5065249;28;20219;-29
2024/01/23 05:06:00;;;;;;;6.63;1.30;;;;;;;;;;5062811;28;20655;-27
2024/01/23 05:08:28;;;;;;;8.77;1.60;;;;;;;;;;5061544;28;20202;-27
2024/01/23 05:10:57;;;;;;;5.53;1.33;;;;;;;;;;5059115;28;20279;-30
2024/01/23 05:13:25;;;;;;;7.00;1.40;;;;;;;;;;5063577;28;20213;-28
2024/01/23 05:15:53;;;;;;;4.80;1.20;;;;;;;;;;5070377;28;20212;-27
2024/01/23 05:18:30;;;;;;;6.13;0.80;;;;;;;;;;5069240;28;20292;-27
2024/01/23 05:21:01;;;;;;;9.70;1.63;;;;;;;;;;5066544;28;20293;-28
2024/01/23 05:23:29;;;;;;;1.67;1.17;;;;;;;;;;5065320;28;20201;-32
2024/01/23 05:26:01;;;;;;;4.43;1.30;;;;;;;;;;5067236;28;20198;-27
2024/01/23 05:28:28;;;;;;;3.17;1.30;;;;;;;;;;5072742;28;20287;-27
2024/01/23 05:30:56;;;;;;;2.70;1.37;;;;;;;;;;5073470;28;20228;-30
2024/01/23 05:33:24;;;;;;;6.87;1.60;;;;;;;;;;5058224;28;20206;-26
2024/01/23 05:35:51;;;;;;;3.47;1.13;;;;;;;;;;5065947;28;20228;-27
2024/01/23 05:38:18;;;;;;;8.53;1.43;;;;;;;;;;5071412;28;20245;-29
2024/01/23 05:40:49;;;;;;;3.30;1.23;;;;;;;;;;5067289;28;20559;-29
2024/01/23 05:43:16;;;;;;;8.67;1.40;;;;;;;;;;5067208;28;20615;-27
2024/01/23 05:45:44;;;;;;;6.37;1.30;;;;;;;;;;5072604;28;20209;-29
2024/01/23 05:48:29;;;;;;;7.60;1.70;;;;;;;;;;5064505;28;20205;-27
2024/01/23 05:50:57;;;;;;;7.73;1.30;;;;;;;;;;5059067;28;20241;-28
2024/01/23 05:53:24;;;;;;;9.07;1.60;;;;;;;;;;5069275;28;20205;-26
2024/01/23 05:55:57;;;;;;;7.53;2.03;;;;;;;;;;5071904;28;20221;-27
2024/01/23 05:58:24;;;;;;;9.57;1.93;;;;;;;;;;5073872;28;20603;-29
2024/01/23 06:00:53;;;;;;;15.83;2.43;;;;;;;;;;5072661;28;20217;-27
2024/01/23 06:03:21;;;;;;;7.87;1.37;;;;;;;;;;5066504;28;20206;-29
2024/01/23 06:05:53;;;;;;;9.07;1.80;;;;;;;;;;5073221;28;20197;-28
2024/01/23 06:08:26;;;;;;;4.20;1.40;;;;;;;;;;5072063;28;20202;-27
2024/01/23 06:10:55;;;;;;;4.40;1.27;;;;;;;;;;5065338;28;20236;-29
2024/01/23 06:13:23;;;;;;;9.73;1.33;;;;;;;;;;5072850;28;20662;-29
2024/01/23 06:16:05;;;;;;;4.47;1.03;;;;;;;;;;5073833;28;20212;-27
2024/01/23 06:18:36;;;;;;;7.17;1.20;;;;;;;;;;5060797;28;20303;-28
2024/01/23 06:21:09;;;;;;;4.37;1.43;;;;;;;;;;5073859;28;20312;-27
2024/01/23 06:23:39;;;;;;;8.70;1.80;;;;;;;;;;5067070;28;20245;-29
2024/01/23 06:26:10;;;;;;;5.17;1.00;;;;;;;;;;5056039;28;20289;-26
2024/01/23 06:28:47;;;;;;;5.63;1.27;;;;;;;;;;5071376;28;20212;-29
2024/01/23 06:31:15;;;;;;;4.57;0.73;;;;;;;;;;5065191;28;20330;-28
2024/01/23 06:33:47;;;;;;;4.87;1.13;;;;;;;;;;5065395;28;20260;-27
2024/01/23 06:36:21;;;;;;;2.17;0.83;;;;;;;;;;5067698;28;20213;-29
2024/01/23 06:38:57;;;;;;;1.63;0.90;;;;;;;;;;5071064;28;20225;-27
2024/01/23 06:41:31;;;;;;;1.03;0.90;;;;;;;;;;5071492;28;20227;-26
2024/01/23 06:47:29;;;;;;;2.17;0.60;;;;;;;;;;5065373;28;20223;-28
2024/01/23 06:50:03;;;;;;;3.20;0.80;;;;;;;;;;5058427;28;20282;-29
2024/01/23 06:52:31;;;;;;;1.97;0.63;;;;;;;;;;5073849;28;20240;-30
2024/01/23 06:55:12;;;;;;;3.73;0.67;;;;;;;;;;5059367;28;20209;-28
2024/01/23 06:57:47;;;;;;;1.07;0.40;;;;;;;;;;5072596;28;20260;-28
2024/01/23 07:00:32;;;;;;;2.33;0.70;;;;;;;;;;5080344;28;20243;-29
2024/01/23 07:03:09;;;;;;;2.93;0.70;;;;;;;;;;5076416;28;20201;-29
2024/01/23 07:05:52;;;;;;;2.63;0.67;;;;;;;;;;5071083;28;20290;-30
2024/01/23 07:08:31;;;;;;;0.57;0.50;;;;;;;;;;5072312;28;20219;-29
2024/01/23 07:11:10;;;;;;;0.50;0.50;;;;;;;;;;5066175;28;20292;-29
2024/01/23 07:13:41;;;;;;;2.27;0.47;;;;;;;;;;5074172;28;20665;-28
2024/01/23 07:16:24;;;;;;;1.07;0.60;;;;;;;;;;5080517;28;20198;-29
2024/01/23 07:18:57;;;;;;;1.10;0.33;;;;;;;;;;5069156;28;20706;-28
2024/01/23 07:21:40;;;;;;;0.57;0.40;;;;;;;;;;5067431;28;20225;-28
2024/01/23 07:29:20;;;;;;;1.60;1.00;;;;;;;;;;5020753;28;20212;-27
2024/01/23 07:31:55;;;;;;;0.93;0.53;;;;;;;;;;5013089;28;20207;-27
2024/01/23 07:39:32;;;;;;;1.30;0.73;;;;;;;;;;5044372;28;20238;-34
2024/01/23 07:42:07;;;;;;;1.63;0.67;;;;;;;;;;5044886;28;20209;-37
2024/01/23 07:44:47;;;;;;;2.53;0.80;;;;;;;;;;5052808;28;20212;-34
2024/01/23 07:47:16;;;;;;;1.03;0.90;;;;;;;;;;5051605;28;20280;-35
2024/01/23 07:52:22;;;;;;;2.97;0.70;;;;;;;;;;5028901;28;20251;-35
2024/01/23 07:54:56;;;;;;;1.60;0.63;;;;;;;;;;5026676;28;20249;-35
2024/01/23 07:57:27;;;;;;;1.77;0.90;;;;;;;;;;5037178;28;20288;-32
2024/01/23 08:00:02;;;;;;;2.40;0.80;;;;;;;;;;5032464;28;20230;-34
2024/01/23 08:02:35;;;;;;;1.23;0.80;;;;;;;;;;5029268;28;20221;-33
2024/01/23 08:05:03;;;;;;;4.43;1.07;;;;;;;;;;5016839;28;20211;-37
2024/01/23 08:07:32;;;;;;;0.93;0.73;;;;;;;;;;5030919;28;20302;-36
2024/01/23 08:10:01;;;;;;;1.27;0.90;;;;;;;;;;5021782;28;20238;-36
2024/01/23 08:12:30;;;;;;;2.97;1.13;;;;;;;;;;5030921;28;20564;-32
2024/01/23 08:15:06;;;;;;;1.07;0.97;;;;;;;;;;5031599;28;20206;-34
2024/01/23 08:17:40;;;;;;;2.87;1.00;;;;;;;;;;5025295;28;20241;-33
2024/01/23 08:20:10;;;;;;;3.63;0.80;;;;;;;;;;5024778;28;20225;-35
2024/01/23 08:22:39;;;;;;;0.77;0.53;;;;;;;;;;5031843;28;20588;-34
2024/01/23 08:25:08;;;;;;;1.60;0.87;;;;;;;;;;5023536;28;20206;-39
2024/01/23 08:27:37;;;;;;;1.90;0.60;;;;;;;;;;5031448;28;20268;-36
2024/01/23 08:30:10;;;;;;;3.47;0.77;;;;;;;;;;5027275;28;20227;-38
2024/01/23 08:32:41;;;;;;;0.70;0.70;;;;;;;;;;5028820;28;20207;-39
2024/01/23 08:35:16;;;;;;;4.30;0.60;;;;;;;;;;5022851;28;20206;-36
2024/01/23 08:37:44;;;;;;;2.13;0.60;;;;;;;;;;5029095;28;20225;-37
2024/01/23 08:40:15;;;;;;;5.33;0.77;;;;;;;;;;5026300;28;20229;-36
2024/01/23 08:42:42;;;;;;;2.93;0.87;;;;;;;;;;5031113;28;20263;-36
2024/01/23 08:45:14;;;;;;;2.87;0.90;;;;;;;;;;5032755;28;20218;-38
2024/01/23 08:47:42;;;;;;;2.70;0.90;;;;;;;;;;5029762;28;20210;-35
2024/01/23 08:50:10;;;;;;;1.90;0.70;;;;;;;;;;5033159;28;20230;-35
2024/01/23 08:52:44;;;;;;;2.40;1.07;;;;;;;;;;5071688;28;20205;-38
2024/01/23 08:55:13;;;;;;;1.00;0.80;;;;;;;;;;5064606;28;20205;-36
2024/01/23 08:57:43;;;;;;;2.93;0.87;;;;;;;;;;5074936;28;20228;-35
2024/01/23 09:00:25;;;;;;;1.57;1.07;;;;;;;;;;5075685;28;20312;-37
2024/01/23 09:03:03;;;;;;;3.23;1.27;;;;;;;;;;5061128;28;20208;-34
2024/01/23 09:05:38;;;;;;;1.00;0.77;;;;;;;;;;5071097;28;20667;-33
2024/01/23 09:08:13;;;;;;;4.13;0.90;;;;;;;;;;5067865;28;20201;-35
2024/01/23 09:10:53;;;;;;;3.53;1.30;;;;;;;;;;5066472;28;20710;-32
2024/01/23 09:13:28;;;;;;;5.13;1.37;;;;;;;;;;5075287;28;20213;-38
2024/01/23 09:16:02;;;;;;;1.40;1.00;;;;;;;;;;5067562;28;20224;-37
2024/01/23 09:18:40;;;;;;;1.90;1.20;;;;;;;;;;5066153;28;20298;-34
2024/01/23 09:21:12;;;;;;;2.30;1.37;;;;;;;;;;5060025;28;20235;-37
2024/01/23 09:23:50;;;;;;;2.60;1.33;;;;;;;;;;5071927;28;20229;-37
2024/01/23 09:26:21;;;;;;;4.07;1.37;;;;;;;;;;5074777;28;20270;-39
2024/01/23 09:28:59;;;;;;;4.83;1.73;;;;;;;;;;5074919;28;20201;-36
2024/01/23 09:31:38;;;;;;;3.37;1.33;;;;;;;;;;5073061;28;20206;-33
2024/01/23 09:34:13;;;;;;;2.67;1.50;;;;;;;;;;5068045;28;20271;-36
2024/01/23 09:36:49;;;;;;;6.20;1.67;;;;;;;;;;5075198;28;20220;-38
2024/01/23 09:39:18;;;;;;;2.97;1.60;;;;;;;;;;5068470;28;20283;-35
2024/01/23 09:41:51;;;;;;;2.13;1.20;;;;;;;;;;5072737;28;20229;-31
2024/01/23 09:44:27;;;;;;;2.60;1.30;;;;;;;;;;5075361;28;20213;-37
2024/01/23 09:47:07;;;;;;;1.80;1.27;;;;;;;;;;5073396;28;20232;-37
2024/01/23 09:49:42;;;;;;;5.07;1.63;;;;;;;;;;5074886;28;20250;-36
2024/01/23 09:52:21;;;;;;;5.57;2.03;;;;;;;;;;5066804;28;20655;-34
2024/01/23 09:54:54;;;;;;;3.93;1.20;;;;;;;;;;5062614;28;20205;-34
2024/01/23 09:57:26;;;;;;;5.57;1.80;;;;;;;;;;5063064;28;20297;-34
2024/01/23 10:00:11;;;;;;;5.03;1.90;;;;;;;;;;5072814;28;20249;-35
2024/01/23 10:02:43;;;;;;;5.97;1.67;;;;;;;;;;5067116;28;20212;-35
2024/01/23 10:05:21;;;;;;;3.40;1.60;;;;;;;;;;5066096;28;20205;-35
2024/01/23 10:07:56;;;;;;;2.53;1.07;;;;;;;;;;5066252;28;20240;-40
2024/01/23 10:10:29;;;;;;;5.50;1.37;;;;;;;;;;5064372;28;20235;-31
2024/01/23 10:13:05;;;;;;;6.47;1.30;;;;;;;;;;5073458;28;20211;-33
2024/01/23 10:15:44;;;;;;;4.37;1.33;;;;;;;;;;5075059;28;20208;-35
2024/01/23 10:25:58;;;;;;;5.10;1.80;;;;;;;;;;5044486;28;20304;-26
2024/01/23 10:28:32;;;;;;;3.50;1.83;;;;;;;;;;5054503;28;20294;-26
2024/01/23 10:31:12;;;;;;;6.33;1.87;;;;;;;;;;5070837;28;20232;-27
2024/01/23 10:33:50;;;;;;;3.27;1.57;;;;;;;;;;5070722;28;20204;-29
2024/01/23 10:36:23;;;;;;;5.50;2.13;;;;;;;;;;5071888;28;20219;-26
2024/01/23 10:39:02;;;;;;;4.33;1.67;;;;;;;;;;5085306;28;20279;-29
2024/01/23 10:41:40;;;;;;;2.87;1.30;;;;;;;;;;5065757;28;20201;-27
2024/01/23 10:44:11;;;;;;;3.60;1.47;;;;;;;;;;5077362;28;20207;-28
2024/01/23 10:46:44;;;;;;;8.00;1.30;;;;;;;;;;5078876;28;20294;-31
2024/01/23 10:49:18;;;;;;;6.40;1.80;;;;;;;;;;5065012;28;20205;-25
2024/01/23 10:51:56;;;;;;;9.57;1.97;;;;;;;;;;5077815;28;20231;-27
2024/01/23 10:54:48;;;;;;;7.20;1.90;;;;;;;;;;5075448;28;20205;-28
2024/01/23 10:57:29;;;;;;;4.87;2.03;;;;;;;;;;5072968;28;20297;-24
2024/01/23 11:00:10;;;;;;;3.93;1.63;;;;;;;;;;5074757;28;20340;-28
2024/01/23 11:02:52;;;;;;;7.40;1.67;;;;;;;;;;5073612;28;20296;-26
2024/01/23 11:05:33;;;;;;;5.27;1.87;;;;;;;;;;5059468;28;20208;-27
2024/01/23 11:08:09;;;;;;;11.57;2.10;;;;;;;;;;5071559;28;20212;-26
2024/01/23 11:10:44;;;;;;;10.33;2.93;;;;;;;;;;5068496;28;20256;-26
2024/01/23 11:13:30;;;;;;;3.67;1.70;;;;;;;;;;5074147;28;20254;-27
2024/01/23 11:16:29;;;;;;;7.27;1.53;;;;;;;;;;5064231;28;20217;-28
2024/01/23 11:19:03;;;;;;;5.27;2.00;;;;;;;;;;5060643;28;20233;-25
2024/01/23 11:21:38;;;;;;;2.33;1.17;;;;;;;;;;5063119;28;20209;-25
2024/01/23 11:24:11;;;;;;;7.43;1.70;;;;;;;;;;5070500;28;20217;-27
2024/01/23 11:26:39;;;;;;;4.17;1.30;;;;;;;;;;5067650;28;20205;-29
2024/01/23 11:29:07;;;;;;;5.73;1.57;;;;;;;;;;5070427;28;20228;-27
2024/01/23 11:31:39;;;;;;;7.47;1.37;;;;;;;;;;5071396;28;20215;-29
2024/01/23 11:34:25;;;;;;;7.17;1.40;;;;;;;;;;5070744;28;20216;-26
2024/01/23 11:36:54;;;;;;;3.43;1.33;;;;;;;;;;5071381;28;20296;-26
2024/01/23 11:39:24;;;;;;;3.97;1.50;;;;;;;;;;5062179;28;20234;-27
2024/01/23 11:41:55;;;;;;;3.40;1.50;;;;;;;;;;5065477;28;20213;-28
2024/01/23 11:44:27;;;;;;;5.87;1.40;;;;;;;;;;5072380;28;20224;-27
2024/01/23 11:47:08;;;;;;;3.80;1.00;;;;;;;;;;5071141;28;20206;-26
2024/01/23 11:52:17;;;;;;;3.03;1.20;;;;;;;;;;5051328;28;20659;-36
2024/01/23 11:54:47;;;;;;;9.00;1.20;;;;;;;;;;5046711;28;20663;-35
2024/01/23 11:57:17;;;;;;;4.37;1.40;;;;;;;;;;5049865;28;20228;-38
2024/01/23 11:59:45;;;;;;;3.00;0.77;;;;;;;;;;5051621;28;20238;-34
2024/01/23 12:02:16;;;;;;;5.53;1.33;;;;;;;;;;5046445;28;20199;-33
2024/01/23 12:04:48;;;;;;;5.90;1.87;;;;;;;;;;5043803;28;20233;-33
2024/01/23 12:07:18;;;;;;;5.43;1.30;;;;;;;;;;5043861;28;20241;-38
2024/01/23 12:09:46;;;;;;;5.23;1.33;;;;;;;;;;5044678;28;20691;-34
2024/01/23 12:15:12;;;;;;;3.23;1.50;;;;;;;;;;5048131;28;20292;-37
2024/01/23 12:17:50;;;;;;;5.83;1.60;;;;;;;;;;5031302;28;20207;-33
2024/01/23 12:20:17;;;;;;;5.67;1.53;;;;;;;;;;5039551;28;20237;-37
2024/01/23 12:22:50;;;;;;;4.03;0.93;;;;;;;;;;5031410;28;20207;-31
2024/01/23 12:25:17;;;;;;;3.60;1.03;;;;;;;;;;5028298;28;20661;-37
2024/01/23 12:27:52;;;;;;;13.90;1.40;;;;;;;;;;5047545;28;20489;-35
2024/01/23 12:30:29;;;;;;;4.17;1.10;;;;;;;;;;5052145;28;20233;-35
2024/01/23 12:33:07;;;;;;;4.57;1.27;;;;;;;;;;5040773;28;20425;-30
2024/01/23 12:35:42;;;;;;;6.60;1.80;;;;;;;;;;5044310;28;20608;-37
2024/01/23 12:38:17;;;;;;;5.87;1.53;;;;;;;;;;5014032;28;20242;-33
2024/01/23 12:40:48;;;;;;;5.53;1.57;;;;;;;;;;5035161;28;20253;-33
2024/01/23 12:43:18;;;;;;;10.10;1.37;;;;;;;;;;5038695;28;20216;-33
2024/01/23 12:45:54;;;;;;;7.43;1.63;;;;;;;;;;5046592;28;20256;-34
2024/01/23 12:48:24;;;;;;;2.10;0.90;;;;;;;;;;5032191;28;20338;-35
2024/01/23 12:50:52;;;;;;;5.20;1.37;;;;;;;;;;5031185;28;20230;-32
2024/01/23 12:53:20;;;;;;;5.80;1.43;;;;;;;;;;5038162;28;20304;-38
2024/01/23 12:55:58;;;;;;;5.20;1.37;;;;;;;;;;5040670;28;20210;-32
2024/01/23 12:58:32;;;;;;;2.10;0.97;;;;;;;;;;5044356;28;20232;-33
2024/01/23 13:01:00;;;;;;;7.47;1.77;;;;;;;;;;5034218;28;20227;-33
2024/01/23 13:03:30;;;;;;;5.30;1.30;;;;;;;;;;5037897;28;20202;-33
2024/01/23 13:05:57;;;;;;;6.43;1.73;;;;;;;;;;5049278;28;20209;-36
2024/01/23 13:08:27;;;;;;;9.07;1.33;;;;;;;;;;5036297;28;20310;-41
2024/01/23 13:13:26;;;;;;;11.90;1.63;;;;;;;;;;5049147;28;20218;-32
2024/01/23 13:15:54;;;;;;;6.53;1.40;;;;;;;;;;5051770;28;20229;-37
2024/01/23 13:18:22;;;;;;;3.70;1.50;;;;;;;;;;5040006;28;20295;-33
2024/01/23 13:20:51;;;;;;;7.07;1.47;;;;;;;;;;5032183;28;20226;-30
2024/01/23 13:23:21;;;;;;;11.17;2.17;;;;;;;;;;5050739;28;20238;-38
2024/01/23 13:25:48;;;;;;;4.53;1.27;;;;;;;;;;5041191;28;20214;-34
2024/01/23 13:28:22;;;;;;;3.10;1.53;;;;;;;;;;5050427;28;20225;-37
2024/01/23 13:31:15;;;;;;;7.37;1.80;;;;;;;;;;5050674;28;20226;-36
2024/01/23 13:33:43;;;;;;;8.87;3.00;;;;;;;;;;5035896;28;20260;-33
2024/01/23 13:36:14;;;;;;;6.73;3.13;;;;;;;;;;5050687;28;20206;-30
2024/01/23 13:38:45;;;;;;;4.90;1.90;;;;;;;;;;5047521;28;20218;-37
2024/01/23 13:41:12;;;;;;;8.43;1.60;;;;;;;;;;5052562;28;20218;-37
2024/01/23 13:43:46;;;;;;;8.17;1.77;;;;;;;;;;5054851;28;20267;-37
2024/01/23 13:48:42;;;;;;;5.00;1.40;;;;;;;;;;5051356;28;20225;-32
2024/01/23 13:51:17;;;;;;;9.00;2.37;;;;;;;;;;5053420;28;20218;-35
2024/01/23 13:53:46;;;;;;;4.63;1.40;;;;;;;;;;5049992;28;20237;-37
2024/01/23 13:56:16;;;;;;;4.63;1.30;;;;;;;;;;5049772;28;20735;-35
2024/01/23 13:58:44;;;;;;;3.90;1.13;;;;;;;;;;5054404;28;20202;-37
2024/01/23 14:01:14;;;;;;;5.50;2.17;;;;;;;;;;5053587;28;20308;-38
2024/01/23 14:03:43;;;;;;;4.00;1.43;;;;;;;;;;5045993;28;20239;-30
2024/01/23 14:06:12;;;;;;;10.30;1.43;;;;;;;;;;5053093;28;20596;-33
2024/01/23 14:08:44;;;;;;;5.57;1.70;;;;;;;;;;5053115;28;20278;-33
2024/01/23 14:11:17;;;;;;;3.43;1.57;;;;;;;;;;5043977;28;20218;-32
2024/01/23 14:13:49;;;;;;;5.23;1.40;;;;;;;;;;5054542;28;20205;-37
2024/01/23 14:16:16;;;;;;;7.63;1.60;;;;;;;;;;5052863;28;20267;-34
2024/01/23 14:18:43;;;;;;;5.00;1.60;;;;;;;;;;5043032;28;20198;-35
2024/01/23 14:21:19;;;;;;;8.80;1.50;;;;;;;;;;5043710;28;20233;-35
2024/01/23 14:23:54;;;;;;;10.33;1.70;;;;;;;;;;5045793;28;20222;-40
2024/01/23 14:26:25;;;;;;;2.03;1.27;;;;;;;;;;5046291;28;20202;-33
2024/01/23 14:28:52;;;;;;;4.53;1.20;;;;;;;;;;5053535;28;20216;-36
2024/01/23 14:31:21;;;;;;;2.40;0.97;;;;;;;;;;5052638;28;20234;-38
2024/01/23 14:33:52;;;;;;;4.83;1.30;;;;;;;;;;5049526;28;20214;-33
2024/01/23 14:36:24;;;;;;;4.50;2.03;;;;;;;;;;5047488;28;20263;-36
2024/01/23 14:38:53;;;;;;;3.63;1.17;;;;;;;;;;5047449;28;20210;-35
2024/01/23 14:41:21;;;;;;;6.93;2.03;;;;;;;;;;5052543;28;20241;-34
2024/01/23 14:43:48;;;;;;;5.27;1.67;;;;;;;;;;5053602;28;20209;-34
2024/01/23 14:46:20;;;;;;;4.50;1.80;;;;;;;;;;5053342;28;20218;-34
2024/01/23 14:48:48;;;;;;;4.83;1.90;;;;;;;;;;5066116;28;20732;-34
2024/01/23 14:51:16;;;;;;;4.47;2.10;;;;;;;;;;5070840;28;20232;-34
2024/01/23 14:53:47;;;;;;;9.07;2.97;;;;;;;;;;5070248;28;20210;-32
2024/01/23 14:56:26;;;;;;;6.63;2.47;;;;;;;;;;5073630;28;20205;-32
2024/01/23 14:58:57;;;;;;;5.00;1.63;;;;;;;;;;5073384;28;20223;-32
2024/01/23 15:01:26;;;;;;;6.10;1.60;;;;;;;;;;5068593;28;20225;-35
2024/01/23 15:03:54;;;;;;;5.13;1.37;;;;;;;;;;5057519;28;20210;-33
2024/01/23 15:06:22;;;;;;;4.73;1.40;;;;;;;;;;5069377;28;20274;-39
2024/01/23 15:08:50;;;;;;;8.57;1.80;;;;;;;;;;5063730;28;20209;-34
2024/01/23 15:11:19;;;;;;;4.63;3.00;;;;;;;;;;5064245;28;20232;-37
2024/01/23 15:13:48;;;;;;;10.50;3.13;;;;;;;;;;5063715;28;20205;-34
2024/01/23 15:16:22;;;;;;;6.93;4.17;;;;;;;;;;5071347;28;20204;-31
2024/01/23 15:18:57;;;;;;;13.70;6.60;;;;;;;;;;5068067;28;20205;-38
2024/01/23 15:21:30;;;;;;;9.40;3.97;;;;;;;;;;5064171;28;20229;-34
2024/01/23 15:24:02;;;;;;;26.23;13.47;;;;;;;;;;5071646;28;20216;-35
2024/01/23 15:26:41;;;;;;;5.27;3.20;;;;;;;;;;5066658;28;20208;-37
2024/01/23 15:29:16;;;;;;;8.33;2.03;;;;;;;;;;5073227;28;20205;-34
2024/01/23 15:31:43;;;;;;;4.17;1.67;;;;;;;;;;5072890;28;20208;-35
2024/01/23 15:34:13;;;;;;;7.00;1.90;;;;;;;;;;5063178;28;20206;-31
2024/01/23 15:36:49;;;;;;;6.23;1.83;;;;;;;;;;5064988;28;20293;-37
2024/01/23 15:39:23;;;;;;;5.17;1.90;;;;;;;;;;5065657;28;20209;-32
2024/01/23 15:41:53;;;;;;;4.27;2.30;;;;;;;;;;5062585;28;20644;-37
2024/01/23 15:44:42;;;;;;;8.50;2.50;;;;;;;;;;5070862;28;20599;-38
2024/01/23 15:47:11;;;;;;;4.03;1.63;;;;;;;;;;5071961;28;20227;-32
2024/01/23 15:49:38;;;;;;;4.23;1.87;;;;;;;;;;5065381;28;20232;-32
2024/01/23 15:52:08;;;;;;;7.60;1.73;;;;;;;;;;5068914;28;20201;-33
2024/01/23 15:54:37;;;;;;;3.23;1.50;;;;;;;;;;5064023;28;20217;-35
2024/01/23 15:57:06;;;;;;;3.60;1.47;;;;;;;;;;5062738;28;20663;-33
2024/01/23 15:59:33;;;;;;;7.03;1.50;;;;;;;;;;5071760;28;20311;-37
2024/01/23 16:02:00;;;;;;;6.03;1.47;;;;;;;;;;5070822;28;20197;-33
2024/01/23 16:04:27;;;;;;;3.77;2.03;;;;;;;;;;5064463;28;20235;-34
2024/01/23 16:06:55;;;;;;;8.57;1.73;;;;;;;;;;5061974;28;20206;-36
2024/01/23 16:09:32;;;;;;;6.20;1.50;;;;;;;;;;5061341;28;20254;-30
2024/01/23 16:12:00;;;;;;;3.07;1.37;;;;;;;;;;5072271;28;20213;-35